createdAt,value
2022-11-28T00:02:17.372Z,5.09
2022-11-28T00:04:48.067Z,5.05
2022-11-28T00:07:19.391Z,5.11
2022-11-28T00:09:49.271Z,5.13
2022-11-28T00:12:19.625Z,5.44
2022-11-28T00:14:49.900Z,5.05
2022-11-28T00:17:19.754Z,5.61
2022-11-28T00:19:49.413Z,5.38
2022-11-28T00:22:21.071Z,4.86
2022-11-28T00:24:50.888Z,5.32
2022-11-28T00:27:21.225Z,5.13
2022-11-28T00:29:51.861Z,4.82
2022-11-28T00:32:21.906Z,4.42
2022-11-28T00:34:51.795Z,4.51
2022-11-28T00:37:22.765Z,4.50
2022-11-28T00:39:52.658Z,4.55
2022-11-28T00:42:22.529Z,4.25
2022-11-28T00:44:53.711Z,3.69
2022-11-28T00:47:23.331Z,4.25
2022-11-28T00:49:52.915Z,4.49
2022-11-28T00:52:24.072Z,4.09
2022-11-28T00:54:53.830Z,3.82
2022-11-28T00:57:23.936Z,3.63
2022-11-28T00:59:53.671Z,4.04
2022-11-28T01:02:23.546Z,4.14
2022-11-28T01:04:53.206Z,3.75
2022-11-28T01:07:28.882Z,4.09
2022-11-28T01:10:01.031Z,4.24
2022-11-28T01:12:31.006Z,4.03
2022-11-28T01:15:01.161Z,3.72
2022-11-28T01:17:31.391Z,3.85
2022-11-28T01:20:01.145Z,3.97
2022-11-28T01:22:32.335Z,3.98
2022-11-28T01:25:02.035Z,3.86
2022-11-28T01:27:31.957Z,3.92
2022-11-28T01:30:01.887Z,3.74
2022-11-28T01:32:31.591Z,4.07
2022-11-28T01:35:01.709Z,4.00
2022-11-28T01:37:33.389Z,3.51
2022-11-28T01:40:03.831Z,3.72
2022-11-28T01:42:33.536Z,3.59
2022-11-28T01:45:11.935Z,3.61
2022-11-28T01:47:42.306Z,3.98
2022-11-28T01:50:12.159Z,3.85
2022-11-28T01:52:46.050Z,3.61
2022-11-28T01:55:18.496Z,4.28
2022-11-28T01:57:48.185Z,4.10
2022-11-28T02:00:21.912Z,4.02
2022-11-28T02:02:54.345Z,3.48
2022-11-28T02:05:24.519Z,3.71
2022-11-28T02:07:56.264Z,3.35
2022-11-28T02:10:29.404Z,3.44
2022-11-28T02:13:26.499Z,3.46
2022-11-28T02:16:12.965Z,3.71
2022-11-28T02:18:56.353Z,3.49
2022-11-28T02:21:40.859Z,3.39
2022-11-28T02:24:46.630Z,3.55
2022-11-28T02:27:39.132Z,3.42
2022-11-28T02:30:18.314Z,3.43
2022-11-28T02:33:14.351Z,3.52
2022-11-28T02:35:55.697Z,3.62
2022-11-28T02:38:36.839Z,3.91
2022-11-28T02:41:13.428Z,3.71
2022-11-28T02:43:50.120Z,3.54
2022-11-28T02:46:27.243Z,3.52
2022-11-28T02:49:03.300Z,3.95
2022-11-28T02:51:36.784Z,3.49
2022-11-28T02:54:09.706Z,3.25
2022-11-28T02:56:39.254Z,3.27
2022-11-28T02:59:32.984Z,3.11
2022-11-28T03:02:03.389Z,3.05
2022-11-28T03:04:41.595Z,2.46
2022-11-28T03:07:22.058Z,3.23
2022-11-28T03:10:02.180Z,3.18
2022-11-28T03:12:38.173Z,3.55
2022-11-28T03:15:11.565Z,3.83
2022-11-28T03:17:49.790Z,3.07
2022-11-28T03:20:26.129Z,3.00
2022-11-28T03:23:06.390Z,3.50
2022-11-28T03:25:42.308Z,3.71
2022-11-28T03:28:16.514Z,3.39
2022-11-28T03:30:48.820Z,3.38
2022-11-28T03:33:21.676Z,3.36
2022-11-28T03:35:59.459Z,3.51
2022-11-28T03:38:33.325Z,3.03
2022-11-28T03:41:08.497Z,3.75
2022-11-28T03:43:43.451Z,3.58
2022-11-28T03:46:18.483Z,3.45
2022-11-28T03:48:50.824Z,3.57
2022-11-28T03:51:24.184Z,3.42
2022-11-28T03:54:02.481Z,3.03
2022-11-28T03:56:40.414Z,3.28
2022-11-28T03:59:12.640Z,3.23
2022-11-28T04:01:52.888Z,3.19
2022-11-28T04:04:26.765Z,3.07
2022-11-28T04:07:00.256Z,3.39
2022-11-28T04:09:39.744Z,3.02
2022-11-28T04:12:12.555Z,3.16
2022-11-28T04:14:45.773Z,2.89
2022-11-28T04:17:18.930Z,3.07
2022-11-28T04:19:53.590Z,3.20
2022-11-28T04:22:28.977Z,2.74
2022-11-28T04:25:02.023Z,2.87
2022-11-28T04:27:37.135Z,3.15
2022-11-28T04:30:09.400Z,3.36
2022-11-28T04:32:43.442Z,3.52
2022-11-28T04:35:16.487Z,3.48
2022-11-28T04:37:49.630Z,3.30
2022-11-28T04:40:20.695Z,3.38
2022-11-28T04:42:53.793Z,3.09
2022-11-28T04:45:28.339Z,2.42
2022-11-28T04:47:58.460Z,2.94
2022-11-28T04:50:34.420Z,3.15
2022-11-28T04:53:10.218Z,2.95
2022-11-28T04:55:43.750Z,3.31
2022-11-28T04:58:17.855Z,3.12
2022-11-28T05:00:48.311Z,3.21
2022-11-28T05:03:19.479Z,2.21
2022-11-28T05:05:51.620Z,2.52
2022-11-28T05:08:24.010Z,2.32
2022-11-28T05:10:54.090Z,2.96
2022-11-28T05:13:23.891Z,2.78
2022-11-28T05:15:53.552Z,2.55
2022-11-28T05:18:23.210Z,2.53
2022-11-28T05:20:53.015Z,2.76
2022-11-28T05:23:24.104Z,2.84
2022-11-28T05:25:53.868Z,2.74
2022-11-28T05:28:23.465Z,2.67
2022-11-28T05:31:00.052Z,2.75
2022-11-28T05:33:31.510Z,2.99
2022-11-28T05:36:11.268Z,3.10
2022-11-28T05:38:47.168Z,3.03
2022-11-28T05:41:25.169Z,3.17
2022-11-28T05:43:56.885Z,2.76
2022-11-28T05:46:26.990Z,2.94
2022-11-28T05:48:56.998Z,2.98
2022-11-28T05:51:27.052Z,3.01
2022-11-28T05:53:58.135Z,2.73
2022-11-28T05:56:28.250Z,3.17
2022-11-28T05:58:58.233Z,3.11
2022-11-28T06:01:29.807Z,2.87
2022-11-28T06:04:01.343Z,2.73
2022-11-28T06:06:32.697Z,2.53
2022-11-28T06:09:04.224Z,2.73
2022-11-28T06:11:34.914Z,2.67
2022-11-28T06:14:05.050Z,2.48
2022-11-28T06:16:35.308Z,2.63
2022-11-28T06:19:07.219Z,2.76
2022-11-28T06:21:37.221Z,3.35
2022-11-28T06:24:10.969Z,3.06
2022-11-28T06:26:40.495Z,3.30
2022-11-28T06:29:10.474Z,3.12
2022-11-28T06:31:40.036Z,2.98
2022-11-28T06:34:11.955Z,2.56
2022-11-28T06:36:41.970Z,2.45
2022-11-28T06:39:16.324Z,2.49
2022-11-28T06:41:46.619Z,2.80
2022-11-28T06:44:17.811Z,2.63
2022-11-28T06:46:47.409Z,2.48
2022-11-28T06:49:18.274Z,2.90
2022-11-28T06:51:47.915Z,3.37
2022-11-28T06:54:19.958Z,3.02
2022-11-28T06:56:49.659Z,3.19
2022-11-28T06:59:19.991Z,3.38
2022-11-28T07:01:49.607Z,3.05
2022-11-28T07:04:19.630Z,3.06
2022-11-28T07:06:49.240Z,3.40
2022-11-28T07:09:20.733Z,2.94
2022-11-28T07:11:50.360Z,2.88
2022-11-28T07:14:20.107Z,3.57
2022-11-28T07:16:50.425Z,3.31
2022-11-28T07:19:23.311Z,2.87
2022-11-28T07:21:52.990Z,3.04
2022-11-28T07:24:24.460Z,2.72
2022-11-28T07:26:54.342Z,2.99
2022-11-28T07:29:24.900Z,3.50
2022-11-28T07:31:55.095Z,3.29
2022-11-28T07:34:24.825Z,2.83
2022-11-28T07:36:54.967Z,2.37
2022-11-28T07:39:26.195Z,2.50
2022-11-28T07:41:56.139Z,2.00
2022-11-28T07:44:26.150Z,2.20
2022-11-28T07:46:55.920Z,2.62
2022-11-28T07:49:25.681Z,2.43
2022-11-28T07:51:56.015Z,2.21
2022-11-28T07:54:27.395Z,2.67
2022-11-28T07:57:12.547Z,2.92
2022-11-28T07:59:44.243Z,3.08
2022-11-28T08:02:14.870Z,2.56
2022-11-28T08:04:50.435Z,2.11
2022-11-28T08:07:21.541Z,2.89
2022-11-28T08:09:53.145Z,2.20
2022-11-28T08:12:23.786Z,1.66
2022-11-28T08:14:53.605Z,2.07
2022-11-28T08:17:23.234Z,2.95
2022-11-28T08:19:52.964Z,2.76
2022-11-28T08:22:22.992Z,1.78
2022-11-28T08:24:54.261Z,3.26
2022-11-28T08:27:23.956Z,2.55
2022-11-28T08:29:54.277Z,2.61
2022-11-28T08:32:24.755Z,3.05
2022-11-28T08:34:54.263Z,2.86
2022-11-28T08:37:24.076Z,3.16
2022-11-28T08:39:55.090Z,3.45
2022-11-28T08:42:24.670Z,3.02
2022-11-28T08:44:54.232Z,2.46
2022-11-28T08:47:23.842Z,2.72
2022-11-28T08:49:53.685Z,3.13
2022-11-28T08:52:24.746Z,3.42
2022-11-28T08:54:55.959Z,3.37
2022-11-28T08:57:25.651Z,3.41
2022-11-28T08:59:55.734Z,3.72
2022-11-28T09:02:26.221Z,3.45
2022-11-28T09:04:56.100Z,3.58
2022-11-28T09:07:25.896Z,3.67
2022-11-28T09:09:57.260Z,3.49
2022-11-28T09:12:27.250Z,4.29
2022-11-28T09:14:57.380Z,4.16
2022-11-28T09:17:26.926Z,4.33
2022-11-28T09:19:56.506Z,4.52
2022-11-28T09:22:26.091Z,3.96
2022-11-28T09:24:57.236Z,4.00
2022-11-28T09:27:26.933Z,3.49
2022-11-28T09:29:56.656Z,3.69
2022-11-28T09:32:26.379Z,3.68
2022-11-28T09:34:56.535Z,3.84
2022-11-28T09:37:26.205Z,4.11
2022-11-28T09:40:12.795Z,4.21
2022-11-28T09:42:45.205Z,4.25
2022-11-28T09:45:17.952Z,4.29
2022-11-28T09:47:51.252Z,3.94
2022-11-28T09:50:24.610Z,3.79
2022-11-28T09:53:01.160Z,2.99
2022-11-28T09:55:38.935Z,2.58
2022-11-28T09:58:14.411Z,3.59
2022-11-28T10:00:54.100Z,3.91
2022-11-28T10:03:38.798Z,3.84
2022-11-28T10:06:19.826Z,3.61
2022-11-28T10:09:03.325Z,3.26
2022-11-28T10:11:45.046Z,3.84
2022-11-28T10:14:41.988Z,4.35
2022-11-28T10:17:18.822Z,3.17
2022-11-28T10:19:54.611Z,3.33
2022-11-28T10:22:30.611Z,3.51
2022-11-28T10:25:05.836Z,3.76
2022-11-28T10:27:37.790Z,4.27
2022-11-28T10:30:12.446Z,3.58
2022-11-28T10:32:44.069Z,3.37
2022-11-28T10:35:28.251Z,3.51
2022-11-28T10:37:58.010Z,3.94
2022-11-28T10:40:35.185Z,3.63
2022-11-28T10:43:12.631Z,3.79
2022-11-28T10:45:50.303Z,3.90
2022-11-28T10:48:39.646Z,4.03
2022-11-28T10:51:28.380Z,3.91
2022-11-28T10:54:18.477Z,3.48
2022-11-28T10:56:56.385Z,3.28
2022-11-28T10:59:36.166Z,3.97
2022-11-28T11:02:23.026Z,4.25
2022-11-28T11:04:52.768Z,3.88
2022-11-28T11:07:29.541Z,3.81
2022-11-28T11:10:04.205Z,4.19
2022-11-28T11:12:34.234Z,4.78
2022-11-28T11:15:18.343Z,4.46
2022-11-28T11:17:50.485Z,4.77
2022-11-28T11:20:32.474Z,4.50
2022-11-28T11:23:04.411Z,4.74
2022-11-28T11:25:34.824Z,4.62
2022-11-28T11:28:06.110Z,4.84
2022-11-28T11:30:40.495Z,4.45
2022-11-28T11:33:17.698Z,4.66
2022-11-28T11:35:48.910Z,4.06
2022-11-28T11:38:27.418Z,4.14
2022-11-28T11:40:57.080Z,4.67
2022-11-28T11:43:31.150Z,4.16
2022-11-28T11:46:11.278Z,4.70
2022-11-28T11:48:42.555Z,3.91
2022-11-28T11:51:25.485Z,3.93
2022-11-28T11:54:06.647Z,4.01
2022-11-28T11:56:40.394Z,4.35
2022-11-28T11:59:15.411Z,4.69
2022-11-28T12:01:49.608Z,4.83
2022-11-28T12:04:44.496Z,4.50
2022-11-28T12:07:22.785Z,4.81
2022-11-28T12:09:55.437Z,5.22
2022-11-28T12:12:29.330Z,5.19
2022-11-28T12:14:59.246Z,4.23
2022-11-28T12:17:58.837Z,4.42
2022-11-28T12:20:39.607Z,4.93
2022-11-28T12:23:31.515Z,4.52
2022-11-28T12:26:07.419Z,4.72
2022-11-28T12:28:48.130Z,4.86
2022-11-28T12:31:24.011Z,3.98
2022-11-28T12:34:02.833Z,4.19
2022-11-28T12:36:38.419Z,4.24
2022-11-28T12:39:23.355Z,4.83
2022-11-28T12:42:20.768Z,4.82
2022-11-28T12:45:00.781Z,4.96
2022-11-28T12:47:40.065Z,4.37
2022-11-28T12:50:21.551Z,4.79
2022-11-28T12:52:57.932Z,4.74
2022-11-28T12:55:33.507Z,4.68
2022-11-28T12:58:10.461Z,4.79
2022-11-28T13:00:50.321Z,4.58
2022-11-28T13:03:30.913Z,4.82
2022-11-28T13:06:22.069Z,5.56
2022-11-28T13:09:05.233Z,5.23
2022-11-28T13:11:49.812Z,5.39
2022-11-28T13:14:28.476Z,5.65
2022-11-28T13:17:01.320Z,5.28
2022-11-28T13:19:37.432Z,5.26
2022-11-28T13:22:15.486Z,5.25
2022-11-28T13:24:50.439Z,5.12
2022-11-28T13:27:32.504Z,5.62
2022-11-28T13:30:19.690Z,5.49
2022-11-28T13:32:52.190Z,6.00
2022-11-28T13:35:22.920Z,5.63
2022-11-28T13:40:55.391Z,5.92
2022-11-28T13:43:30.836Z,5.88
2022-11-28T13:46:00.968Z,5.57
2022-11-28T13:49:20.457Z,5.82
2022-11-28T13:51:52.017Z,5.96
2022-11-28T13:54:49.086Z,5.25
2022-11-28T13:57:37.622Z,5.78
2022-11-28T14:00:23.183Z,5.83
2022-11-28T14:02:55.091Z,6.19
2022-11-28T14:05:34.179Z,6.17
2022-11-28T14:08:05.445Z,6.09
2022-11-28T14:11:05.708Z,5.84
2022-11-28T14:14:05.567Z,6.06
2022-11-28T14:16:51.527Z,6.09
2022-11-28T14:19:31.182Z,6.32
2022-11-28T14:22:14.642Z,6.54
2022-11-28T14:24:56.160Z,6.21
2022-11-28T14:27:28.946Z,6.05
2022-11-28T14:30:00.936Z,6.07
2022-11-28T14:32:36.173Z,6.08
2022-11-28T14:35:06.940Z,5.72
2022-11-28T14:37:49.515Z,5.95
2022-11-28T14:41:04.936Z,5.58
2022-11-28T14:43:36.959Z,5.81
2022-11-28T14:46:27.931Z,6.00
2022-11-28T14:49:21.945Z,6.15
2022-11-28T14:52:42.627Z,6.02
2022-11-28T14:55:21.790Z,6.53
2022-11-28T14:57:58.311Z,6.36
2022-11-28T15:00:29.871Z,6.85
2022-11-28T15:03:23.175Z,6.86
2022-11-28T15:05:54.361Z,6.72
2022-11-28T15:08:53.325Z,6.74
2022-11-28T15:11:37.050Z,6.48
2022-11-28T15:14:21.251Z,6.62
2022-11-28T15:16:53.710Z,6.75
2022-11-28T15:19:28.666Z,6.62
2022-11-28T15:21:58.715Z,6.98
2022-11-28T15:24:31.800Z,6.64
2022-11-28T15:27:20.886Z,6.85
2022-11-28T15:29:57.310Z,6.41
2022-11-28T15:32:28.971Z,6.91
2022-11-28T15:35:07.753Z,6.72
2022-11-28T15:37:40.660Z,6.71
2022-11-28T15:40:21.731Z,6.71
2022-11-28T15:42:52.596Z,6.81
2022-11-28T15:45:27.299Z,6.67
2022-11-28T15:47:58.980Z,6.40
2022-11-28T15:50:31.610Z,6.82
2022-11-28T15:53:03.478Z,6.91
2022-11-28T15:55:36.396Z,5.98
2022-11-28T15:58:14.221Z,6.48
2022-11-28T16:00:46.093Z,6.69
2022-11-28T16:03:17.885Z,5.87
2022-11-28T16:05:50.466Z,5.97
2022-11-28T16:08:28.831Z,6.57
2022-11-28T16:10:59.435Z,6.52
2022-11-28T16:13:31.693Z,6.90
2022-11-28T16:16:04.329Z,6.64
2022-11-28T16:18:34.364Z,6.78
2022-11-28T16:21:06.150Z,6.79
2022-11-28T16:23:39.530Z,6.77
2022-11-28T16:26:22.055Z,6.95
2022-11-28T16:29:02.159Z,6.67
2022-11-28T16:31:32.756Z,6.64
2022-11-28T16:34:03.730Z,6.56
2022-11-28T16:36:38.381Z,6.48
2022-11-28T16:39:13.689Z,5.53
2022-11-28T16:41:52.420Z,6.05
2022-11-28T16:44:24.734Z,5.37
2022-11-28T16:46:57.117Z,6.18
2022-11-28T16:49:35.926Z,6.15
2022-11-28T16:52:46.859Z,6.62
2022-11-28T16:55:48.526Z,6.25
2022-11-28T16:58:21.519Z,5.70
2022-11-28T17:01:01.153Z,5.67
2022-11-28T17:03:49.904Z,5.51
2022-11-28T17:06:34.367Z,6.15
2022-11-28T17:09:07.995Z,6.18
2022-11-28T17:11:39.942Z,5.69
2022-11-28T17:14:13.640Z,6.09
2022-11-28T17:16:44.211Z,5.98
2022-11-28T17:19:14.356Z,5.82
2022-11-28T17:21:46.496Z,5.85
2022-11-28T17:24:21.095Z,5.76
2022-11-28T17:26:52.056Z,5.81
2022-11-28T17:29:25.473Z,5.95
2022-11-28T17:31:57.595Z,6.24
2022-11-28T17:34:31.201Z,5.72
2022-11-28T17:37:01.870Z,5.80
2022-11-28T17:39:33.275Z,5.56
2022-11-28T17:42:03.381Z,5.22
2022-11-28T17:44:34.885Z,5.63
2022-11-28T17:47:05.129Z,5.67
2022-11-28T17:49:34.935Z,5.58
2022-11-28T17:52:04.531Z,5.17
2022-11-28T17:54:35.861Z,5.42
2022-11-28T17:57:05.650Z,4.92
2022-11-28T17:59:36.354Z,4.88
2022-11-28T18:02:06.351Z,5.79
2022-11-28T18:04:38.291Z,5.38
2022-11-28T18:07:08.146Z,5.95
2022-11-28T18:09:40.400Z,6.08
2022-11-28T18:12:10.224Z,5.64
2022-11-28T18:14:40.106Z,5.19
2022-11-28T18:17:09.791Z,5.54
2022-11-28T18:19:41.487Z,5.35
2022-11-28T18:22:11.877Z,5.40
2022-11-28T18:24:43.429Z,5.73
2022-11-28T18:27:13.026Z,5.65
2022-11-28T18:29:43.084Z,5.23
2022-11-28T18:32:13.375Z,5.65
2022-11-28T18:34:44.124Z,5.49
2022-11-28T18:37:13.979Z,5.63
2022-11-28T18:39:45.940Z,5.88
2022-11-28T18:42:17.125Z,6.01
2022-11-28T18:44:46.976Z,6.26
2022-11-28T18:47:16.695Z,5.74
2022-11-28T18:49:46.285Z,5.82
2022-11-28T18:52:16.190Z,5.98
2022-11-28T18:54:48.402Z,5.90
2022-11-28T18:57:17.951Z,6.03
2022-11-28T18:59:54.675Z,5.97
2022-11-28T19:02:26.331Z,5.95
2022-11-28T19:04:56.425Z,5.81
2022-11-28T19:07:27.660Z,5.40
2022-11-28T19:10:00.188Z,5.44
2022-11-28T19:12:30.176Z,6.38
2022-11-28T19:15:02.357Z,6.15
2022-11-28T19:17:32.530Z,6.39
2022-11-28T19:20:03.030Z,6.36
2022-11-28T19:22:37.186Z,6.18
2022-11-28T19:25:10.553Z,5.90
2022-11-28T19:27:40.345Z,6.28
2022-11-28T19:30:11.760Z,5.38
2022-11-28T19:32:43.198Z,6.00
2022-11-28T19:35:13.486Z,6.02
2022-11-28T19:37:44.949Z,6.06
2022-11-28T19:40:17.150Z,6.26
2022-11-28T19:42:47.274Z,5.81
2022-11-28T19:45:17.795Z,6.04
2022-11-28T19:47:48.932Z,5.72
2022-11-28T19:50:18.764Z,5.29
2022-11-28T19:52:48.437Z,5.47
2022-11-28T19:55:20.205Z,5.27
2022-11-28T19:57:50.030Z,5.95
2022-11-28T20:00:20.350Z,5.65
2022-11-28T20:02:53.234Z,5.51
2022-11-28T20:05:23.150Z,5.60
2022-11-28T20:07:58.167Z,5.40
2022-11-28T20:10:30.159Z,5.31
2022-11-28T20:12:59.957Z,5.34
2022-11-28T20:15:30.134Z,5.59
2022-11-28T20:18:00.595Z,5.18
2022-11-28T20:20:30.979Z,5.40
2022-11-28T20:23:01.698Z,4.92
2022-11-28T20:25:33.756Z,4.54
2022-11-28T20:28:03.479Z,5.14
2022-11-28T20:30:33.021Z,5.12
2022-11-28T20:33:02.476Z,5.49
2022-11-28T20:35:31.735Z,5.78
2022-11-28T20:38:01.394Z,5.82
2022-11-28T20:40:33.054Z,5.65
2022-11-28T20:43:03.501Z,6.06
2022-11-28T20:45:34.508Z,5.75
2022-11-28T20:48:04.268Z,5.94
2022-11-28T20:50:33.931Z,5.45
2022-11-28T20:53:03.646Z,4.97
2022-11-28T20:55:34.634Z,5.12
2022-11-28T20:58:04.405Z,5.23
2022-11-28T21:00:34.031Z,4.85
2022-11-28T21:03:03.516Z,4.87
2022-11-28T21:05:32.991Z,4.91
2022-11-28T21:08:04.207Z,4.89
2022-11-28T21:10:36.295Z,4.77
2022-11-28T21:13:06.429Z,5.08
2022-11-28T21:15:36.120Z,4.49
2022-11-28T21:18:06.145Z,5.31
2022-11-28T21:20:36.439Z,5.19
2022-11-28T21:23:06.601Z,5.61
2022-11-28T21:25:39.426Z,5.46
2022-11-28T21:28:11.769Z,5.65
2022-11-28T21:30:45.516Z,5.68
2022-11-28T21:33:17.417Z,5.26
2022-11-28T21:35:48.294Z,5.59
2022-11-28T21:38:17.944Z,5.95
2022-11-28T21:40:55.626Z,6.03
2022-11-28T21:43:28.754Z,5.16
2022-11-28T21:46:04.344Z,4.86
2022-11-28T21:48:35.970Z,5.18
2022-11-28T21:51:06.839Z,5.41
2022-11-28T21:53:37.064Z,5.06
2022-11-28T21:56:11.425Z,5.25
2022-11-28T21:58:41.024Z,5.90
2022-11-28T22:01:12.934Z,5.90
2022-11-28T22:03:44.033Z,5.36
2022-11-28T22:06:17.036Z,5.28
2022-11-28T22:08:48.719Z,4.94
2022-11-28T22:11:21.755Z,4.80
2022-11-28T22:13:53.108Z,5.56
2022-11-28T22:16:24.634Z,5.08
2022-11-28T22:18:56.945Z,5.49
2022-11-28T22:21:51.171Z,5.18
2022-11-28T22:24:19.321Z,5.29
2022-11-28T22:26:51.151Z,4.94
2022-11-28T22:29:21.483Z,5.01
2022-11-28T22:31:51.435Z,5.10
2022-11-28T22:34:21.214Z,5.06
2022-11-28T22:36:53.180Z,5.10
2022-11-28T22:39:23.312Z,5.45
2022-11-28T22:41:54.494Z,5.65
2022-11-28T22:44:24.278Z,5.26
2022-11-28T22:46:54.011Z,5.33
2022-11-28T22:49:23.473Z,5.38
2022-11-28T22:51:52.854Z,5.56
2022-11-28T22:54:22.614Z,5.14
2022-11-28T22:56:54.384Z,5.03
2022-11-28T22:59:24.380Z,4.76
2022-11-28T23:01:54.407Z,4.39
2022-11-28T23:04:24.699Z,4.99
2022-11-28T23:06:54.044Z,4.84
2022-11-28T23:09:24.484Z,5.38
2022-11-28T23:11:55.715Z,5.48
2022-11-28T23:14:25.855Z,5.58
2022-11-28T23:16:55.430Z,5.66
2022-11-28T23:19:26.727Z,5.67
2022-11-28T23:21:56.534Z,5.47
2022-11-28T23:24:26.361Z,5.72
2022-11-28T23:26:58.105Z,5.30
2022-11-28T23:29:27.836Z,5.49
2022-11-28T23:31:57.568Z,5.35
2022-11-28T23:34:27.275Z,5.32
2022-11-28T23:36:57.235Z,5.57
2022-11-28T23:39:27.440Z,4.86
2022-11-28T23:42:00.258Z,4.63
2022-11-28T23:44:29.999Z,4.93
2022-11-28T23:46:59.745Z,5.00
2022-11-28T23:49:29.291Z,4.53
2022-11-28T23:51:58.905Z,4.45
2022-11-28T23:54:28.856Z,5.30
2022-11-28T23:56:59.905Z,5.40
2022-11-28T23:59:29.571Z,5.01
